createdAt,value
2019-04-07T00:01:45.546Z,37.73
2019-04-07T00:04:14.589Z,37.80
2019-04-07T00:06:43.539Z,35.28
2019-04-07T00:09:12.541Z,36.43
2019-04-07T00:11:41.467Z,35.13
2019-04-07T00:14:10.409Z,35.80
2019-04-07T00:16:40.063Z,36.20
2019-04-07T00:19:09.829Z,37.07
2019-04-07T00:21:38.816Z,34.70
2019-04-07T00:24:08.155Z,39.70
2019-04-07T00:26:37.040Z,41.03
2019-04-07T00:29:06.034Z,37.40
2019-04-07T00:31:35.216Z,38.90
2019-04-07T00:34:05.253Z,38.00
2019-04-07T00:36:35.036Z,40.03
2019-04-07T00:39:05.995Z,37.10
2019-04-07T00:41:35.370Z,36.80
2019-04-07T00:44:05.021Z,34.97
2019-04-07T00:46:34.439Z,34.17
2019-04-07T00:49:04.009Z,34.87
2019-04-07T00:51:33.257Z,36.43
2019-04-07T00:54:02.637Z,34.13
2019-04-07T00:56:31.820Z,36.37
2019-04-07T00:59:01.078Z,34.87
2019-04-07T01:01:30.551Z,36.80
2019-04-07T01:03:59.900Z,34.90
2019-04-07T01:06:29.440Z,34.83
2019-04-07T01:08:58.996Z,38.63
2019-04-07T01:11:28.096Z,37.77
2019-04-07T01:13:57.023Z,34.90
2019-04-07T01:16:26.259Z,33.33
2019-04-07T01:18:55.308Z,35.57
2019-04-07T01:21:24.916Z,35.00
2019-04-07T01:23:54.399Z,37.40
2019-04-07T01:26:23.883Z,37.70
2019-04-07T01:28:54.516Z,36.00
2019-04-07T01:31:24.190Z,35.00
2019-04-07T01:33:53.270Z,35.20
2019-04-07T01:36:22.636Z,34.50
2019-04-07T01:38:52.140Z,34.87
2019-04-07T01:41:38.606Z,33.80
2019-04-07T01:44:29.745Z,33.87
2019-04-07T01:47:27.681Z,32.60
2019-04-07T01:50:22.144Z,31.60
2019-04-07T01:52:59.691Z,32.27
2019-04-07T01:55:57.505Z,33.97
2019-04-07T01:58:42.842Z,36.43
2019-04-07T02:01:27.435Z,31.90
2019-04-07T02:04:18.414Z,32.47
2019-04-07T02:07:24.674Z,32.77
2019-04-07T02:10:20.918Z,32.70
2019-04-07T02:13:16.531Z,34.67
2019-04-07T02:15:56.922Z,31.27
2019-04-07T02:18:40.266Z,35.13
2019-04-07T02:21:37.606Z,35.73
2019-04-07T02:24:24.542Z,34.67
2019-04-07T02:27:15.359Z,33.17
2019-04-07T02:30:03.823Z,33.97
2019-04-07T02:32:44.601Z,33.40
2019-04-07T02:35:39.177Z,35.63
2019-04-07T02:38:30.020Z,36.23
2019-04-07T02:41:17.819Z,33.10
2019-04-07T02:44:25.349Z,35.47
2019-04-07T02:47:08.614Z,31.20
2019-04-07T02:49:50.172Z,34.00
2019-04-07T02:52:42.902Z,33.77
2019-04-07T02:55:34.119Z,31.63
2019-04-07T02:58:20.951Z,31.60
2019-04-07T03:01:02.696Z,31.37
2019-04-07T03:03:57.617Z,30.47
2019-04-07T03:06:49.767Z,32.30
2019-04-07T03:09:49.224Z,30.90
2019-04-07T03:12:37.548Z,31.83
2019-04-07T03:15:13.080Z,30.43
2019-04-07T03:17:55.004Z,32.10
2019-04-07T03:20:32.573Z,31.57
2019-04-07T03:23:09.956Z,31.40
2019-04-07T03:26:00.970Z,29.57
2019-04-07T03:28:47.976Z,30.93
2019-04-07T03:31:38.965Z,30.83
2019-04-07T03:34:20.394Z,30.20
2019-04-07T03:37:22.707Z,32.07
2019-04-07T03:39:39.266Z,31.47
2019-04-07T03:42:15.700Z,29.50
2019-04-07T03:45:02.591Z,31.30
2019-04-07T03:47:44.464Z,30.20
2019-04-07T03:50:33.364Z,32.47
2019-04-07T03:53:20.123Z,30.60
2019-04-07T03:55:55.352Z,30.17
2019-04-07T03:58:39.679Z,30.33
2019-04-07T04:01:35.527Z,33.10
2019-04-07T04:04:24.160Z,32.13
2019-04-07T04:07:33.956Z,31.50
2019-04-07T04:10:08.552Z,28.10
2019-04-07T04:12:55.270Z,31.27
2019-04-07T04:15:38.046Z,31.33
2019-04-07T04:18:07.130Z,32.50
2019-04-07T04:20:37.110Z,44.20
2019-04-07T04:23:06.136Z,30.27
2019-04-07T04:25:34.969Z,30.97
2019-04-07T04:28:04.945Z,28.60
2019-04-07T04:30:34.230Z,29.47
2019-04-07T04:33:03.988Z,30.50
2019-04-07T04:35:34.008Z,30.10
2019-04-07T04:38:03.779Z,31.00
2019-04-07T04:40:32.780Z,29.43
2019-04-07T04:43:02.698Z,30.67
2019-04-07T04:45:31.774Z,30.97
2019-04-07T04:48:00.666Z,30.43
2019-04-07T04:50:29.935Z,28.83
2019-04-07T04:52:59.896Z,26.53
2019-04-07T04:55:30.476Z,29.50
2019-04-07T04:57:59.372Z,30.73
2019-04-07T05:00:28.599Z,29.97
2019-04-07T05:02:58.147Z,29.27
2019-04-07T05:05:28.001Z,29.83
2019-04-07T05:08:02.903Z,30.70
2019-04-07T05:10:27.643Z,31.30
2019-04-07T05:12:57.187Z,28.20
2019-04-07T05:15:26.075Z,27.57
2019-04-07T05:17:55.004Z,26.67
2019-04-07T05:20:24.031Z,28.37
2019-04-07T05:22:53.462Z,30.63
2019-04-07T05:25:22.850Z,29.50
2019-04-07T05:27:51.947Z,30.60
2019-04-07T05:30:20.901Z,29.07
2019-04-07T05:32:49.809Z,29.20
2019-04-07T05:35:18.795Z,29.43
2019-04-07T05:37:59.085Z,27.30
2019-04-07T05:40:19.154Z,27.00
2019-04-07T05:42:48.335Z,24.95
2019-04-07T05:45:17.384Z,28.57
2019-04-07T05:47:48.659Z,27.57
2019-04-07T05:50:16.903Z,28.57
2019-04-07T05:52:46.537Z,27.33
2019-04-07T05:55:15.475Z,26.67
2019-04-07T05:57:44.311Z,28.73
2019-04-07T06:00:16.325Z,27.30
2019-04-07T06:02:45.584Z,27.57
2019-04-07T06:05:16.306Z,27.97
2019-04-07T06:07:45.924Z,27.30
2019-04-07T06:10:15.452Z,24.93
2019-04-07T06:12:47.162Z,30.07
2019-04-07T06:15:19.253Z,29.33
2019-04-07T06:17:46.240Z,26.10
2019-04-07T06:20:17.028Z,29.17
2019-04-07T06:22:46.993Z,30.90
2019-04-07T06:25:17.039Z,27.60
2019-04-07T06:27:46.650Z,27.00
2019-04-07T06:30:17.528Z,29.87
2019-04-07T06:32:47.224Z,30.67
2019-04-07T06:35:16.912Z,28.30
2019-04-07T06:37:46.506Z,29.03
2019-04-07T06:40:20.372Z,27.53
2019-04-07T06:42:46.526Z,28.43
2019-04-07T06:45:21.786Z,32.00
2019-04-07T06:47:53.435Z,27.90
2019-04-07T06:50:49.321Z,31.47
2019-04-07T06:53:38.163Z,30.03
2019-04-07T06:56:13.041Z,31.27
2019-04-07T06:59:00.362Z,31.00
2019-04-07T07:01:41.080Z,34.50
2019-04-07T07:04:28.212Z,32.33
2019-04-07T07:07:25.091Z,30.93
2019-04-07T07:10:27.438Z,32.37
2019-04-07T07:13:28.633Z,30.43
2019-04-07T07:16:07.903Z,31.83
2019-04-07T07:19:05.197Z,29.60
2019-04-07T07:22:02.413Z,28.60
2019-04-07T07:24:31.395Z,29.93
2019-04-07T07:27:00.455Z,29.30
2019-04-07T07:29:29.980Z,28.93
2019-04-07T07:32:03.455Z,33.60
2019-04-07T07:34:29.606Z,31.80
2019-04-07T07:36:58.999Z,29.70
2019-04-07T07:39:29.602Z,30.63
2019-04-07T07:41:59.359Z,31.23
2019-04-07T07:44:28.919Z,30.03
2019-04-07T07:46:58.179Z,28.90
2019-04-07T07:49:28.843Z,29.70
2019-04-07T07:51:58.154Z,30.80
2019-04-07T07:54:28.230Z,30.20
2019-04-07T07:56:58.097Z,28.80
2019-04-07T07:59:30.572Z,28.07
2019-04-07T08:01:57.880Z,28.50
2019-04-07T08:04:27.659Z,29.60
2019-04-07T08:06:56.925Z,28.80
2019-04-07T08:09:26.961Z,29.50
2019-04-07T08:11:56.407Z,29.07
2019-04-07T08:14:25.994Z,28.80
2019-04-07T08:16:55.447Z,27.00
2019-04-07T08:19:29.681Z,26.10
2019-04-07T08:21:58.441Z,24.50
2019-04-07T08:24:28.130Z,26.97
2019-04-07T08:26:58.362Z,23.87
2019-04-07T08:29:28.018Z,23.80
2019-04-07T08:31:57.668Z,23.50
2019-04-07T08:34:26.584Z,23.83
2019-04-07T08:36:55.594Z,22.97
2019-04-07T08:39:26.956Z,24.07
2019-04-07T08:41:55.096Z,26.00
2019-04-07T08:44:26.943Z,24.83
2019-04-07T08:46:57.777Z,25.77
2019-04-07T08:49:25.635Z,25.97
2019-04-07T08:51:55.037Z,24.87
2019-04-07T08:54:24.014Z,22.97
2019-04-07T08:56:56.296Z,24.57
2019-04-07T08:59:23.551Z,24.20
2019-04-07T09:01:54.187Z,22.23
2019-04-07T09:04:22.903Z,22.67
2019-04-07T09:06:51.935Z,21.60
2019-04-07T09:09:31.355Z,20.47
2019-04-07T09:11:54.137Z,19.97
2019-04-07T09:14:22.321Z,20.43
2019-04-07T09:17:05.475Z,22.32
2019-04-07T09:20:10.554Z,19.80
2019-04-07T09:22:56.083Z,19.13
2019-04-07T09:25:37.873Z,19.77
2019-04-07T09:28:28.483Z,19.70
2019-04-07T09:31:06.240Z,19.97
2019-04-07T09:33:58.114Z,19.57
2019-04-07T09:36:33.575Z,19.27
2019-04-07T09:39:20.250Z,19.77
2019-04-07T09:41:57.237Z,18.77
2019-04-07T09:44:48.398Z,20.80
2019-04-07T09:47:36.932Z,20.20
2019-04-07T09:50:28.820Z,19.27
2019-04-07T09:53:19.723Z,21.93
2019-04-07T09:56:16.221Z,19.73
2019-04-07T09:59:04.951Z,20.80
2019-04-07T10:01:51.816Z,19.60
2019-04-07T10:04:49.707Z,18.93
2019-04-07T10:07:40.318Z,16.17
2019-04-07T10:10:21.390Z,16.27
2019-04-07T10:13:20.406Z,15.70
2019-04-07T10:16:08.855Z,15.80
2019-04-07T10:19:03.718Z,13.73
2019-04-07T10:22:04.814Z,12.30
2019-04-07T10:24:52.092Z,13.37
2019-04-07T10:27:46.458Z,12.60
2019-04-07T10:30:28.185Z,11.80
2019-04-07T10:33:15.697Z,12.57
2019-04-07T10:35:59.314Z,11.93
2019-04-07T10:38:50.834Z,11.73
2019-04-07T10:41:42.722Z,10.30
2019-04-07T10:44:32.364Z,8.20
2019-04-07T10:47:26.169Z,7.23
2019-04-07T10:50:14.303Z,6.93
2019-04-07T10:52:52.512Z,6.87
2019-04-07T10:55:40.565Z,6.57
2019-04-07T10:58:26.546Z,8.50
2019-04-07T11:01:15.514Z,6.33
2019-04-07T11:04:07.259Z,8.20
2019-04-07T11:07:01.974Z,7.47
2019-04-07T11:09:50.499Z,7.73
2019-04-07T11:12:37.879Z,6.53
2019-04-07T11:15:27.422Z,6.00
2019-04-07T11:18:12.303Z,6.23
2019-04-07T11:20:49.241Z,6.80
2019-04-07T11:23:34.850Z,6.30
2019-04-07T11:26:12.404Z,6.23
2019-04-07T11:28:50.535Z,5.80
2019-04-07T11:31:41.727Z,5.40
2019-04-07T11:34:17.977Z,5.37
2019-04-07T11:37:12.839Z,5.00
2019-04-07T11:39:54.593Z,5.60
2019-04-07T11:42:43.028Z,5.13
2019-04-07T11:45:19.416Z,5.00
2019-04-07T11:48:01.632Z,5.07
2019-04-07T11:50:36.976Z,5.00
2019-04-07T11:53:31.860Z,4.93
2019-04-07T11:56:20.557Z,6.10
2019-04-07T11:59:17.838Z,5.13
2019-04-07T12:01:54.192Z,4.10
2019-04-07T12:04:35.678Z,4.17
2019-04-07T12:07:19.139Z,4.87
2019-04-07T12:10:05.776Z,5.90
2019-04-07T12:12:45.173Z,5.67
2019-04-07T12:15:33.466Z,3.97
2019-04-07T12:18:19.266Z,5.00
2019-04-07T12:21:20.046Z,4.83
2019-04-07T12:24:06.046Z,4.10
2019-04-07T12:26:43.618Z,5.03
2019-04-07T12:29:23.260Z,5.20
2019-04-07T12:32:09.645Z,5.50
2019-04-07T12:34:49.768Z,5.50
2019-04-07T12:37:32.957Z,5.17
2019-04-07T12:40:22.252Z,5.37
2019-04-07T12:43:01.442Z,4.70
2019-04-07T12:45:50.935Z,5.50
2019-04-07T12:48:29.339Z,5.20
2019-04-07T12:51:22.409Z,5.10
2019-04-07T12:54:00.181Z,4.50
2019-04-07T12:56:47.790Z,5.33
2019-04-07T12:59:41.845Z,4.23
2019-04-07T13:02:21.667Z,4.37
2019-04-07T13:05:09.064Z,4.07
2019-04-07T13:07:52.144Z,4.83
2019-04-07T13:10:39.357Z,4.23
2019-04-07T13:13:29.538Z,4.60
2019-04-07T13:16:28.354Z,4.50
2019-04-07T13:19:09.313Z,4.67
2019-04-07T13:21:57.357Z,4.80
2019-04-07T13:24:45.474Z,4.50
2019-04-07T13:27:21.132Z,4.47
2019-04-07T13:29:59.778Z,3.90
2019-04-07T13:32:50.397Z,4.00
2019-04-07T13:35:25.398Z,4.23
2019-04-07T13:38:29.303Z,4.37
2019-04-07T13:41:23.484Z,5.30
2019-04-07T13:44:10.748Z,4.80
2019-04-07T13:46:59.064Z,4.53
2019-04-07T13:49:38.227Z,4.80
2019-04-07T13:52:29.028Z,4.43
2019-04-07T13:55:20.918Z,4.40
2019-04-07T13:58:12.063Z,4.30
2019-04-07T14:00:48.361Z,4.80
2019-04-07T14:03:37.033Z,4.40
2019-04-07T14:06:24.804Z,4.73
2019-04-07T14:09:12.741Z,4.13
2019-04-07T14:12:08.284Z,4.80
2019-04-07T14:14:49.821Z,4.30
2019-04-07T14:17:33.415Z,5.23
2019-04-07T14:20:15.019Z,4.70
2019-04-07T14:23:02.214Z,5.40
2019-04-07T14:25:45.341Z,4.83
2019-04-07T14:28:22.423Z,4.30
2019-04-07T14:31:13.655Z,4.30
2019-04-07T14:34:20.636Z,4.70
2019-04-07T14:36:55.165Z,5.23
2019-04-07T14:39:39.010Z,5.37
2019-04-07T14:42:29.426Z,4.90
2019-04-07T14:45:18.097Z,5.10
2019-04-07T14:48:16.177Z,5.57
2019-04-07T14:50:59.317Z,4.80
2019-04-07T14:53:48.451Z,4.47
2019-04-07T14:56:37.576Z,6.50
2019-04-07T14:59:29.650Z,6.30
2019-04-07T15:02:00.831Z,5.33
2019-04-07T15:04:48.848Z,4.83
2019-04-07T15:07:36.648Z,5.90
2019-04-07T15:10:15.952Z,6.03
2019-04-07T15:12:47.149Z,6.00
2019-04-07T15:15:17.079Z,5.30
2019-04-07T15:17:47.787Z,5.30
2019-04-07T15:20:17.538Z,7.07
2019-04-07T15:22:48.480Z,7.10
2019-04-07T15:25:18.392Z,5.50
2019-04-07T15:27:47.749Z,6.60
2019-04-07T15:30:17.036Z,7.03
2019-04-07T15:32:46.876Z,4.83
2019-04-07T15:35:29.975Z,5.23
2019-04-07T15:37:59.196Z,5.70
2019-04-07T15:40:28.251Z,6.00
2019-04-07T15:43:01.472Z,6.23
2019-04-07T15:45:28.663Z,6.03
2019-04-07T15:48:00.283Z,6.67
2019-04-07T15:50:30.164Z,4.83
2019-04-07T15:52:59.581Z,5.73
2019-04-07T15:55:43.145Z,6.47
2019-04-07T15:57:59.732Z,6.70
2019-04-07T16:00:32.329Z,5.80
2019-04-07T16:03:00.071Z,6.03
2019-04-07T16:05:30.337Z,5.63
2019-04-07T16:08:01.109Z,6.53
2019-04-07T16:10:30.252Z,8.20
2019-04-07T16:12:59.603Z,7.47
2019-04-07T16:15:29.652Z,6.40
2019-04-07T16:17:58.840Z,6.50
2019-04-07T16:20:32.302Z,7.87
2019-04-07T16:22:58.345Z,8.05
2019-04-07T16:25:28.191Z,7.90
2019-04-07T16:27:58.713Z,6.70
2019-04-07T16:30:27.763Z,7.17
2019-04-07T16:32:59.671Z,6.50
2019-04-07T16:35:27.822Z,7.20
2019-04-07T16:37:58.373Z,7.00
2019-04-07T16:40:28.055Z,7.13
2019-04-07T16:43:09.166Z,6.60
2019-04-07T16:45:29.300Z,6.67
2019-04-07T16:47:58.892Z,8.30
2019-04-07T16:50:29.449Z,7.13
2019-04-07T16:53:02.646Z,5.70
2019-04-07T16:55:37.898Z,7.90
2019-04-07T16:58:09.899Z,8.73
2019-04-07T17:00:39.848Z,7.63
2019-04-07T17:03:09.889Z,8.30
2019-04-07T17:05:40.951Z,9.33
2019-04-07T17:08:10.531Z,8.63
2019-04-07T17:10:46.483Z,10.13
2019-04-07T17:13:24.718Z,7.97
2019-04-07T17:15:50.781Z,9.13
2019-04-07T17:18:36.798Z,9.03
2019-04-07T17:21:11.719Z,9.23
2019-04-07T17:23:40.922Z,10.53
2019-04-07T17:26:10.224Z,9.10
2019-04-07T17:28:42.073Z,9.40
2019-04-07T17:31:14.281Z,8.93
2019-04-07T17:33:43.779Z,10.10
2019-04-07T17:36:17.647Z,10.30
2019-04-07T17:39:03.952Z,10.60
2019-04-07T17:41:32.951Z,9.83
2019-04-07T17:44:23.137Z,9.70
2019-04-07T17:47:09.666Z,11.00
2019-04-07T17:50:04.235Z,10.80
2019-04-07T17:52:44.079Z,11.30
2019-04-07T17:55:33.207Z,11.17
2019-04-07T17:58:09.181Z,10.97
2019-04-07T18:01:20.576Z,11.83
2019-04-07T18:04:16.205Z,10.23
2019-04-07T18:07:06.083Z,11.03
2019-04-07T18:09:57.399Z,9.83
2019-04-07T18:12:40.166Z,11.40
2019-04-07T18:15:37.370Z,10.40
2019-04-07T18:18:28.782Z,12.60
2019-04-07T18:21:30.354Z,10.77
2019-04-07T18:24:18.014Z,11.70
2019-04-07T18:27:11.007Z,14.10
2019-04-07T18:29:52.785Z,13.10
2019-04-07T18:32:46.990Z,13.07
2019-04-07T18:35:34.764Z,14.00
2019-04-07T18:38:36.301Z,11.97
2019-04-07T18:41:23.971Z,14.07
2019-04-07T18:44:07.732Z,11.90
2019-04-07T18:46:55.025Z,13.67
2019-04-07T18:49:39.445Z,12.10
2019-04-07T18:52:26.783Z,12.00
2019-04-07T18:55:30.090Z,12.27
2019-04-07T18:58:25.660Z,11.43
2019-04-07T19:01:14.058Z,12.97
2019-04-07T19:03:58.892Z,12.33
2019-04-07T19:06:41.161Z,13.20
2019-04-07T19:09:17.818Z,13.27
2019-04-07T19:12:20.752Z,14.27
2019-04-07T19:15:09.224Z,13.57
2019-04-07T19:18:01.756Z,14.70
2019-04-07T19:20:55.929Z,13.73
2019-04-07T19:23:44.031Z,15.47
2019-04-07T19:26:33.557Z,12.50
2019-04-07T19:29:12.052Z,13.90
2019-04-07T19:31:59.708Z,14.63
2019-04-07T19:34:48.241Z,14.33
2019-04-07T19:37:35.135Z,17.83
2019-04-07T19:40:16.702Z,15.13
2019-04-07T19:42:52.128Z,14.00
2019-04-07T19:45:39.275Z,16.87
2019-04-07T19:48:17.612Z,18.10
2019-04-07T19:51:05.356Z,15.47
2019-04-07T19:54:16.033Z,18.57
2019-04-07T19:57:07.323Z,14.80
2019-04-07T19:59:45.230Z,13.10
2019-04-07T20:02:32.624Z,16.43
2019-04-07T20:05:19.627Z,14.73
2019-04-07T20:08:06.544Z,14.57
2019-04-07T20:10:45.084Z,16.63
2019-04-07T20:13:29.748Z,16.90
2019-04-07T20:16:12.840Z,13.97
2019-04-07T20:18:59.387Z,16.97
2019-04-07T20:21:55.367Z,16.77
2019-04-07T20:24:56.589Z,16.80
2019-04-07T20:27:33.924Z,17.00
2019-04-07T20:30:23.837Z,16.73
2019-04-07T20:33:20.754Z,15.63
2019-04-07T20:36:19.388Z,16.10
2019-04-07T20:38:57.924Z,16.43
2019-04-07T20:41:34.450Z,14.70
2019-04-07T20:44:25.840Z,17.03
2019-04-07T20:47:12.205Z,16.83
2019-04-07T20:50:02.952Z,15.30
2019-04-07T20:52:53.620Z,15.97
2019-04-07T20:55:41.352Z,16.20
2019-04-07T20:58:42.158Z,16.77
2019-04-07T21:01:20.843Z,15.77
2019-04-07T21:04:08.876Z,17.53
2019-04-07T21:07:02.166Z,16.17
2019-04-07T21:09:56.642Z,16.70
2019-04-07T21:12:45.426Z,17.60
2019-04-07T21:15:27.516Z,17.27
2019-04-07T21:18:17.774Z,17.80
2019-04-07T21:20:56.717Z,18.03
2019-04-07T21:23:37.348Z,20.13
2019-04-07T21:26:17.576Z,19.33
2019-04-07T21:29:07.401Z,20.23
2019-04-07T21:32:08.827Z,23.90
2019-04-07T21:35:01.418Z,18.83
2019-04-07T21:37:40.716Z,19.10
2019-04-07T21:40:28.660Z,19.93
2019-04-07T21:43:05.810Z,17.83
2019-04-07T21:49:00.690Z,20.07
2019-04-07T21:51:53.466Z,20.90
2019-04-07T21:54:32.797Z,19.07
2019-04-07T21:57:09.924Z,19.67
2019-04-07T21:59:49.949Z,18.40
2019-04-07T22:02:29.262Z,19.77
2019-04-07T22:05:07.242Z,19.60
2019-04-07T22:07:41.923Z,17.50
2019-04-07T22:10:12.372Z,16.77
2019-04-07T22:12:42.231Z,20.00
2019-04-07T22:15:13.917Z,19.17
2019-04-07T22:17:42.190Z,17.70
2019-04-07T22:20:12.614Z,17.27
2019-04-07T22:22:43.004Z,19.77
2019-04-07T22:25:13.035Z,17.47
2019-04-07T22:27:43.019Z,19.00
2019-04-07T22:30:13.220Z,18.70
2019-04-07T22:32:42.749Z,18.70
2019-04-07T22:35:12.719Z,20.70
2019-04-07T22:37:41.843Z,18.60
2019-04-07T22:40:15.178Z,18.63
2019-04-07T22:42:45.863Z,18.10
2019-04-07T22:45:15.034Z,18.77
2019-04-07T22:47:44.532Z,19.40
2019-04-07T22:50:14.927Z,19.00
2019-04-07T22:52:47.437Z,20.60
2019-04-07T22:55:14.906Z,22.20
2019-04-07T22:57:44.152Z,21.97
2019-04-07T23:00:21.187Z,20.70
2019-04-07T23:02:50.255Z,17.63
2019-04-07T23:05:19.225Z,18.03
2019-04-07T23:07:48.194Z,20.03
2019-04-07T23:10:17.952Z,19.17
2019-04-07T23:12:47.822Z,18.00
2019-04-07T23:15:17.523Z,17.40
2019-04-07T23:17:47.221Z,19.10
2019-04-07T23:20:17.180Z,18.37
2019-04-07T23:22:46.667Z,20.33
2019-04-07T23:25:15.820Z,19.17
2019-04-07T23:27:45.582Z,18.60
2019-04-07T23:30:17.302Z,20.40
2019-04-07T23:32:46.323Z,18.77
2019-04-07T23:35:15.279Z,18.57
2019-04-07T23:37:44.130Z,20.03
2019-04-07T23:40:14.671Z,19.40
2019-04-07T23:42:44.605Z,17.93
2019-04-07T23:45:14.425Z,17.40
2019-04-07T23:47:43.349Z,18.93
2019-04-07T23:50:12.930Z,18.47
2019-04-07T23:52:41.786Z,18.40
2019-04-07T23:55:10.762Z,19.20
2019-04-07T23:57:40.223Z,19.67
